Time;durP1;ratioP1;P1;durP2;ratioP2;P2;SDS_P1;SDS_P2;PMS_P1;PMS_P2;Temp;Humidity;BMP_temperature;BMP_pressure;BME280_temperature;BME280_humidity;BME280_pressure;Samples;Min_cycle;Max_cycle;Signal;HPM_P1;HPM_P2
2023/07/11 00:02:30;;;;;;;2.83;1.20;;;12.70;99.90;;;;;;4991148;28;20226;-76
2023/07/11 00:05:02;;;;;;;5.95;1.60;;;12.80;99.90;;;;;;4995001;28;20188;-76
2023/07/11 00:07:33;;;;;;;2.95;1.30;;;12.90;99.90;;;;;;4992087;28;20214;-75
2023/07/11 00:10:06;;;;;;;2.47;1.00;;;13.00;99.90;;;;;;4993252;28;20211;-75
2023/07/11 00:12:36;;;;;;;2.85;1.08;;;13.10;99.90;;;;;;4990864;28;20200;-75
2023/07/11 00:15:09;;;;;;;3.42;1.10;;;13.20;99.90;;;;;;4991256;28;20210;-76
2023/07/11 00:17:40;;;;;;;3.53;1.08;;;13.30;99.90;;;;;;4992280;28;20303;-76
2023/07/11 00:20:13;;;;;;;1.02;0.93;;;13.40;99.90;;;;;;4993840;28;20227;-75
2023/07/11 00:22:45;;;;;;;1.63;0.70;;;13.50;99.90;;;;;;4993752;28;20295;-75
2023/07/11 00:25:17;;;;;;;4.00;0.73;;;13.60;99.90;;;;;;4994617;28;20192;-75
2023/07/11 00:27:48;;;;;;;1.25;1.00;;;13.70;99.90;;;;;;4989660;28;20199;-76
2023/07/11 00:30:19;;;;;;;2.67;0.90;;;13.70;99.90;;;;;;4987597;28;20821;-77
2023/07/11 00:32:50;;;;;;;1.38;0.80;;;13.90;99.90;;;;;;4988663;28;20196;-75
2023/07/11 00:35:21;;;;;;;1.80;0.88;;;14.00;99.90;;;;;;4989067;28;20213;-76
2023/07/11 00:37:51;;;;;;;1.50;0.75;;;14.10;99.90;;;;;;4994302;28;20204;-76
2023/07/11 00:40:24;;;;;;;3.22;1.00;;;14.20;99.90;;;;;;4991606;28;20223;-76
2023/07/11 00:42:57;;;;;;;1.02;0.90;;;14.30;99.90;;;;;;4985133;28;20206;-76
2023/07/11 00:46:03;;;;;;;2.15;0.90;;;14.40;99.90;;;;;;4990168;28;20196;-75
2023/07/11 00:48:35;;;;;;;2.47;0.90;;;14.50;99.90;;;;;;4987569;28;20216;-76
2023/07/11 00:51:09;;;;;;;1.38;0.77;;;14.60;99.90;;;;;;4993997;28;20643;-76
2023/07/11 00:53:42;;;;;;;0.93;0.70;;;14.60;99.90;;;;;;4993968;28;20207;-78
2023/07/11 00:56:18;;;;;;;3.53;0.90;;;14.70;99.90;;;;;;4993954;28;20191;-74
2023/07/11 00:58:50;;;;;;;1.42;0.90;;;14.70;99.90;;;;;;4991043;28;20203;-77
2023/07/11 01:01:22;;;;;;;1.35;0.75;;;14.70;99.90;;;;;;4992892;28;20249;-76
2023/07/11 01:03:55;;;;;;;1.55;0.80;;;14.80;99.90;;;;;;4992993;28;20286;-77
2023/07/11 01:06:28;;;;;;;2.30;0.90;;;14.80;99.90;;;;;;4993878;28;20203;-76
2023/07/11 01:09:00;;;;;;;2.17;1.05;;;15.00;99.90;;;;;;4992710;28;20218;-76
2023/07/11 01:11:50;;;;;;;2.53;0.80;;;15.10;99.90;;;;;;4993889;28;20191;-75
2023/07/11 01:14:21;;;;;;;3.05;0.90;;;15.20;99.90;;;;;;4993158;28;20230;-75
2023/07/11 01:16:52;;;;;;;1.23;0.80;;;15.40;99.90;;;;;;4993866;28;20193;-76
2023/07/11 01:19:23;;;;;;;2.63;1.00;;;15.50;99.90;;;;;;4993684;28;20195;-77
2023/07/11 01:21:55;;;;;;;1.52;0.70;;;15.50;99.90;;;;;;4989283;28;20224;-75
2023/07/11 01:24:26;;;;;;;2.47;0.70;;;15.60;99.90;;;;;;4993806;28;20321;-77
2023/07/11 01:26:57;;;;;;;2.83;0.68;;;15.70;99.90;;;;;;4992349;28;20195;-76
2023/07/11 01:29:28;;;;;;;3.47;1.10;;;15.80;99.90;;;;;;4995321;28;20195;-75
2023/07/11 01:31:59;;;;;;;1.98;0.50;;;15.80;99.90;;;;;;4996566;28;20750;-76
2023/07/11 01:34:30;;;;;;;0.98;0.70;;;15.80;99.90;;;;;;4997500;28;20695;-77
2023/07/11 01:37:03;;;;;;;3.40;0.85;;;15.80;99.90;;;;;;4996853;28;20215;-77
2023/07/11 01:39:34;;;;;;;1.00;0.68;;;15.80;99.90;;;;;;4997625;28;20203;-77
2023/07/11 01:42:06;;;;;;;2.00;0.68;;;15.90;99.90;;;;;;4996957;28;20223;-78
2023/07/11 01:44:37;;;;;;;2.03;1.00;;;16.00;99.90;;;;;;4997452;28;20690;-76
2023/07/11 01:47:09;;;;;;;1.02;0.70;;;16.10;99.90;;;;;;4995995;28;20211;-77
2023/07/11 01:49:40;;;;;;;2.40;0.95;;;16.30;99.90;;;;;;4994641;28;20206;-77
2023/07/11 01:52:18;;;;;;;2.25;0.90;;;16.50;99.90;;;;;;4998248;28;20809;-77
2023/07/11 01:54:49;;;;;;;4.55;1.00;;;16.60;99.90;;;;;;4996528;28;20200;-76
2023/07/11 01:57:20;;;;;;;1.85;0.98;;;16.60;99.90;;;;;;4991814;28;20204;-76
2023/07/11 01:59:53;;;;;;;2.40;0.60;;;16.50;99.90;;;;;;4995961;28;20578;-75
2023/07/11 02:02:24;;;;;;;2.35;0.95;;;16.50;99.90;;;;;;4991466;28;20695;-75
2023/07/11 02:04:56;;;;;;;2.00;0.73;;;16.50;99.90;;;;;;4996137;28;20204;-75
2023/07/11 02:07:29;;;;;;;2.38;0.95;;;16.50;99.90;;;;;;4997035;28;20187;-75
2023/07/11 02:10:00;;;;;;;3.08;0.80;;;16.50;99.90;;;;;;4994740;28;20231;-74
2023/07/11 02:12:31;;;;;;;2.83;0.95;;;16.60;99.90;;;;;;4995643;28;20211;-74
2023/07/11 02:15:02;;;;;;;1.88;0.90;;;16.80;99.90;;;;;;4981273;28;20218;-76
2023/07/11 02:17:34;;;;;;;1.65;0.82;;;16.80;99.90;;;;;;4995214;28;20656;-74
2023/07/11 02:20:06;;;;;;;2.17;0.80;;;16.90;99.90;;;;;;4993993;28;20211;-74
2023/07/11 02:22:39;;;;;;;2.42;1.08;;;17.00;99.90;;;;;;4992893;28;20215;-77
2023/07/11 02:25:11;;;;;;;4.35;0.88;;;17.10;99.90;;;;;;4993118;28;20203;-78
2023/07/11 02:27:42;;;;;;;1.20;0.80;;;17.20;99.90;;;;;;4984993;28;20228;-77
2023/07/11 02:30:17;;;;;;;2.60;0.65;;;17.30;99.90;;;;;;4984927;28;20196;-78
2023/07/11 02:32:48;;;;;;;2.78;0.80;;;17.40;99.90;;;;;;4984696;28;20201;-77
2023/07/11 02:35:19;;;;;;;3.35;0.95;;;17.50;99.90;;;;;;4990357;28;20206;-76
2023/07/11 02:37:52;;;;;;;4.35;0.70;;;17.50;99.90;;;;;;4996314;28;20200;-78
2023/07/11 02:40:23;;;;;;;1.35;0.65;;;17.70;99.90;;;;;;4994116;28;20196;-77
2023/07/11 02:42:57;;;;;;;1.10;0.60;;;17.70;99.90;;;;;;4995246;28;20219;-76
2023/07/11 02:45:28;;;;;;;1.05;0.80;;;17.70;99.90;;;;;;4993909;28;20319;-77
2023/07/11 02:48:02;;;;;;;0.98;0.60;;;17.70;99.90;;;;;;4995349;28;20649;-78
2023/07/11 02:50:33;;;;;;;1.50;1.02;;;17.60;99.90;;;;;;4991810;28;20286;-77
2023/07/11 02:53:09;;;;;;;1.15;0.88;;;17.70;99.90;;;;;;4991636;28;20255;-78
2023/07/11 02:55:43;;;;;;;1.23;0.80;;;17.80;99.90;;;;;;4995280;28;20250;-78
2023/07/11 02:58:14;;;;;;;2.88;0.90;;;17.80;99.90;;;;;;4992343;28;20199;-77
2023/07/11 03:00:51;;;;;;;1.95;0.75;;;17.80;99.90;;;;;;4992998;28;20231;-77
2023/07/11 03:03:25;;;;;;;1.20;0.90;;;17.80;99.90;;;;;;4994825;28;20199;-76
2023/07/11 03:05:57;;;;;;;1.88;0.70;;;18.00;99.90;;;;;;4994738;28;20208;-77
2023/07/11 03:08:30;;;;;;;3.50;0.90;;;18.10;99.90;;;;;;4992998;28;20959;-77
2023/07/11 03:11:04;;;;;;;2.70;0.80;;;18.10;99.90;;;;;;4991400;28;20210;-77
2023/07/11 03:13:35;;;;;;;2.78;0.73;;;18.00;99.90;;;;;;4994069;28;20238;-78
2023/07/11 03:16:07;;;;;;;5.32;1.00;;;18.00;99.90;;;;;;4995053;28;20226;-78
2023/07/11 03:18:38;;;;;;;3.00;1.35;;;17.90;99.90;;;;;;4994856;28;20699;-77
2023/07/11 03:21:09;;;;;;;1.52;1.00;;;17.90;99.90;;;;;;4990678;28;20219;-78
2023/07/11 03:23:42;;;;;;;1.27;0.80;;;18.00;99.90;;;;;;4983502;28;20207;-78
2023/07/11 03:26:13;;;;;;;3.72;0.98;;;18.10;99.90;;;;;;4988704;28;20283;-78
2023/07/11 03:28:44;;;;;;;2.33;1.13;;;18.20;99.90;;;;;;4993401;28;20199;-78
2023/07/11 03:31:16;;;;;;;1.88;0.80;;;18.30;99.90;;;;;;4987618;28;20199;-79
2023/07/11 03:33:49;;;;;;;2.50;0.73;;;18.50;99.90;;;;;;4995369;28;20258;-78
2023/07/11 03:36:20;;;;;;;1.15;0.80;;;18.50;99.90;;;;;;4992183;28;20230;-78
2023/07/11 03:38:53;;;;;;;1.90;0.70;;;18.50;99.90;;;;;;4994492;28;20196;-78
2023/07/11 03:41:24;;;;;;;2.90;0.90;;;18.60;99.90;;;;;;4994830;28;20281;-78
2023/07/11 03:43:55;;;;;;;2.45;1.38;;;18.60;99.90;;;;;;4993097;28;20207;-78
2023/07/11 03:46:26;;;;;;;2.85;1.02;;;18.70;99.90;;;;;;4994410;28;20206;-78
2023/07/11 03:49:02;;;;;;;1.33;0.82;;;18.80;99.90;;;;;;4994270;28;20200;-78
2023/07/11 03:51:33;;;;;;;1.58;0.80;;;18.80;99.90;;;;;;4984480;28;20222;-78
2023/07/11 03:54:06;;;;;;;2.53;0.80;;;18.80;99.90;;;;;;4992097;28;20222;-78
2023/07/11 03:56:38;;;;;;;2.15;0.90;;;18.80;99.90;;;;;;4992841;28;20556;-79
2023/07/11 03:59:09;;;;;;;1.55;0.68;;;18.90;99.90;;;;;;4993816;28;20195;-78
2023/07/11 04:01:40;;;;;;;1.65;0.77;;;18.90;99.90;;;;;;4992761;28;20246;-77
2023/07/11 04:04:11;;;;;;;1.05;0.60;;;18.80;99.90;;;;;;4993260;28;20191;-78
2023/07/11 04:06:44;;;;;;;1.90;0.73;;;18.80;99.90;;;;;;4992418;28;20659;-79
2023/07/11 04:09:17;;;;;;;1.10;0.52;;;18.70;99.90;;;;;;4994164;28;20569;-78
2023/07/11 04:11:48;;;;;;;0.88;0.70;;;18.70;99.90;;;;;;4994561;28;20636;-78
2023/07/11 04:14:19;;;;;;;4.03;0.80;;;18.80;99.90;;;;;;4994668;28;20199;-79
2023/07/11 04:16:51;;;;;;;1.50;0.73;;;18.90;99.90;;;;;;4994337;28;20656;-78
2023/07/11 04:19:22;;;;;;;1.52;0.60;;;18.90;99.90;;;;;;4994658;28;20198;-78
2023/07/11 04:21:53;;;;;;;3.25;0.60;;;18.90;99.90;;;;;;4994906;28;20229;-79
2023/07/11 04:24:26;;;;;;;2.13;0.80;;;18.90;99.90;;;;;;4994521;28;20192;-78
2023/07/11 04:26:57;;;;;;;1.55;0.60;;;18.90;99.90;;;;;;4994550;28;20200;-78
2023/07/11 04:29:28;;;;;;;1.13;0.70;;;18.90;99.90;;;;;;4994860;28;20198;-78
2023/07/11 04:31:59;;;;;;;1.05;0.60;;;19.00;99.90;;;;;;4994499;28;20191;-79
2023/07/11 04:34:30;;;;;;;2.75;0.60;;;19.10;99.90;;;;;;4994712;28;20198;-79
2023/07/11 04:37:02;;;;;;;2.08;0.75;;;19.20;99.90;;;;;;4994710;28;20202;-77
2023/07/11 04:39:35;;;;;;;1.60;0.50;;;19.20;99.90;;;;;;4994373;28;20539;-77
2023/07/11 04:42:06;;;;;;;2.80;0.90;;;19.20;99.90;;;;;;4994135;28;20219;-78
2023/07/11 04:44:37;;;;;;;4.00;1.05;;;19.20;99.90;;;;;;4994258;28;20195;-78
2023/07/11 04:47:09;;;;;;;1.42;0.68;;;19.20;99.90;;;;;;4994481;28;20640;-78
2023/07/11 04:49:40;;;;;;;3.22;1.10;;;19.10;99.90;;;;;;4994712;28;20197;-78
2023/07/11 04:52:11;;;;;;;3.13;1.10;;;19.20;99.90;;;;;;4994274;28;20235;-79
2023/07/11 04:54:44;;;;;;;1.23;0.52;;;19.10;99.90;;;;;;4994276;28;20187;-78
2023/07/11 04:57:15;;;;;;;6.50;1.75;;;19.10;99.90;;;;;;4993904;28;20271;-79
2023/07/11 04:59:47;;;;;;;2.05;0.75;;;19.10;99.90;;;;;;4993922;28;20195;-78
2023/07/11 05:02:18;;;;;;;1.75;0.73;;;19.10;99.90;;;;;;4993961;28;20306;-79
2023/07/11 05:04:49;;;;;;;2.47;0.70;;;19.10;99.90;;;;;;4993605;28;20243;-77
2023/07/11 05:07:20;;;;;;;1.42;0.60;;;19.10;99.90;;;;;;4993966;28;20196;-78
2023/07/11 05:09:53;;;;;;;1.23;0.50;;;19.20;99.90;;;;;;4994009;28;20199;-78
2023/07/11 05:12:24;;;;;;;1.85;0.70;;;19.20;99.90;;;;;;4994240;28;20192;-79
2023/07/11 05:14:55;;;;;;;0.50;0.40;;;19.20;99.90;;;;;;4993894;28;20200;-77
2023/07/11 05:17:26;;;;;;;3.75;2.22;;;19.20;99.90;;;;;;4993901;28;20192;-79
2023/07/11 05:19:57;;;;;;;2.50;0.70;;;19.20;99.90;;;;;;4993879;28;20194;-78
2023/07/11 05:22:29;;;;;;;1.38;0.68;;;19.20;99.90;;;;;;4993767;28;20690;-78
2023/07/11 05:25:02;;;;;;;2.90;0.60;;;19.20;99.90;;;;;;4993858;28;20195;-79
2023/07/11 05:27:33;;;;;;;1.05;0.60;;;19.20;99.90;;;;;;4994663;28;20286;-79
2023/07/11 05:30:05;;;;;;;0.70;0.30;;;19.20;99.90;;;;;;4993832;28;20200;-78
2023/07/11 05:32:36;;;;;;;0.95;0.30;;;19.20;99.90;;;;;;4993807;28;20192;-79
2023/07/11 05:35:07;;;;;;;0.30;0.30;;;19.10;99.90;;;;;;4993766;28;20872;-79
2023/07/11 05:37:39;;;;;;;1.08;0.50;;;19.00;99.90;;;;;;4993764;28;20191;-79
2023/07/11 05:40:15;;;;;;;1.23;0.50;;;19.00;99.90;;;;;;4993565;28;20195;-79
2023/07/11 05:42:46;;;;;;;1.58;0.65;;;19.00;99.90;;;;;;4993737;28;20234;-78
2023/07/11 05:45:18;;;;;;;0.95;0.50;;;19.10;99.90;;;;;;4993323;28;20203;-78
2023/07/11 05:47:49;;;;;;;3.13;0.50;;;19.00;99.90;;;;;;4993922;28;20192;-79
2023/07/11 05:50:21;;;;;;;1.08;0.40;;;19.00;99.90;;;;;;4993659;28;20198;-78
2023/07/11 05:52:52;;;;;;;0.68;0.50;;;19.00;99.90;;;;;;4993484;28;20250;-78
2023/07/11 05:55:25;;;;;;;2.33;0.60;;;18.90;99.90;;;;;;4993260;28;20203;-78
2023/07/11 05:57:56;;;;;;;2.35;0.70;;;18.80;99.90;;;;;;4993518;28;20200;-78
2023/07/11 06:00:28;;;;;;;2.03;0.50;;;18.70;99.90;;;;;;4993503;28;20235;-78
2023/07/11 06:02:59;;;;;;;4.25;0.60;;;18.70;99.90;;;;;;4993441;28;20694;-77
2023/07/11 06:05:30;;;;;;;1.02;0.57;;;18.70;99.90;;;;;;4993346;28;20539;-78
2023/07/11 06:08:02;;;;;;;1.27;0.60;;;18.70;99.90;;;;;;4993471;28;20195;-78
2023/07/11 06:10:36;;;;;;;0.70;0.47;;;18.60;99.90;;;;;;4993180;28;20207;-77
2023/07/11 06:13:07;;;;;;;0.88;0.40;;;18.60;99.90;;;;;;4993371;28;20198;-77
2023/07/11 06:15:38;;;;;;;1.48;0.50;;;18.60;99.90;;;;;;4993465;28;20192;-77
2023/07/11 06:18:10;;;;;;;2.17;0.60;;;18.60;99.90;;;;;;4997100;28;20562;-77
2023/07/11 06:20:41;;;;;;;1.00;0.52;;;18.50;99.90;;;;;;4997294;28;20191;-78
2023/07/11 06:23:12;;;;;;;1.90;0.73;;;18.40;99.90;;;;;;4996937;28;20219;-77
2023/07/11 06:25:45;;;;;;;2.80;0.60;;;18.40;99.90;;;;;;4996781;28;20196;-78
2023/07/11 06:28:16;;;;;;;1.17;0.60;;;18.40;99.90;;;;;;4996843;28;20207;-77
2023/07/11 06:30:47;;;;;;;2.35;0.40;;;18.30;99.90;;;;;;4996844;28;20188;-76
2023/07/11 06:33:19;;;;;;;0.95;0.50;;;18.20;99.90;;;;;;4996812;28;20200;-78
2023/07/11 06:35:52;;;;;;;1.60;0.70;;;18.20;99.90;;;;;;4996639;28;20261;-77
2023/07/11 06:38:23;;;;;;;1.92;0.55;;;18.00;99.90;;;;;;4996461;28;20215;-77
2023/07/11 06:40:57;;;;;;;0.90;0.63;;;18.00;99.90;;;;;;4996602;28;20671;-78
2023/07/11 06:43:30;;;;;;;1.38;0.70;;;17.80;99.90;;;;;;4996674;28;20238;-78
2023/07/11 06:46:03;;;;;;;1.02;0.70;;;17.70;99.90;;;;;;4996496;28;20199;-77
2023/07/11 06:48:35;;;;;;;1.02;0.70;;;17.60;99.90;;;;;;4996529;28;20211;-77
2023/07/11 06:51:06;;;;;;;1.17;0.80;;;17.50;99.90;;;;;;4997176;28;20196;-77
2023/07/11 06:53:38;;;;;;;4.70;0.80;;;17.40;99.90;;;;;;4996191;28;20198;-78
2023/07/11 06:56:12;;;;;;;0.90;0.80;;;17.20;99.90;;;;;;4996264;28;20199;-78
2023/07/11 06:58:43;;;;;;;2.25;0.90;;;17.10;99.90;;;;;;4996068;28;20196;-78
2023/07/11 07:01:14;;;;;;;1.27;0.60;;;16.90;99.90;;;;;;4996349;28;20722;-79
2023/07/11 07:03:45;;;;;;;0.90;0.60;;;16.70;99.90;;;;;;4995961;28;20682;-77
2023/07/11 07:06:19;;;;;;;1.20;0.70;;;16.60;99.90;;;;;;4996136;28;20202;-78
2023/07/11 07:08:50;;;;;;;3.97;1.40;;;16.50;99.90;;;;;;4995892;28;20627;-78
2023/07/11 07:11:27;;;;;;;1.60;0.90;;;16.30;99.90;;;;;;4996072;28;20192;-78
2023/07/11 07:13:58;;;;;;;1.38;0.75;;;16.20;99.90;;;;;;4995868;28;20743;-78
2023/07/11 07:16:30;;;;;;;1.65;0.80;;;16.10;99.90;;;;;;4995989;28;20191;-78
2023/07/11 07:19:01;;;;;;;0.98;0.73;;;15.90;99.90;;;;;;4996385;28;20682;-78
2023/07/11 07:21:32;;;;;;;3.42;1.30;;;15.70;99.90;;;;;;4995845;28;20192;-78
2023/07/11 07:24:04;;;;;;;2.53;1.33;;;15.60;99.90;;;;;;4995900;28;20223;-79
2023/07/11 07:26:37;;;;;;;4.03;2.20;;;15.50;99.90;;;;;;4995432;28;20280;-78
2023/07/11 07:29:09;;;;;;;4.25;3.10;;;15.40;99.90;;;;;;4996122;28;20192;-78
2023/07/11 07:31:40;;;;;;;9.45;6.32;;;15.40;99.90;;;;;;4995763;28;20195;-78
2023/07/11 07:34:11;;;;;;;9.60;6.25;;;15.30;99.90;;;;;;4995706;28;20203;-79
2023/07/11 07:36:42;;;;;;;8.15;5.75;;;15.10;99.90;;;;;;4995646;28;20188;-79
2023/07/11 07:39:13;;;;;;;8.82;5.78;;;15.10;99.90;;;;;;4995635;28;20235;-78
2023/07/11 07:41:46;;;;;;;11.48;7.93;;;15.00;99.90;;;;;;4995520;28;20191;-79
2023/07/11 07:44:17;;;;;;;13.57;8.90;;;15.00;99.90;;;;;;4995453;28;20226;-79
2023/07/11 07:46:48;;;;;;;9.75;6.25;;;15.00;99.90;;;;;;4995372;28;20210;-79
2023/07/11 07:49:20;;;;;;;6.13;4.47;;;14.80;99.90;;;;;;4995408;28;20203;-78
2023/07/11 07:51:51;;;;;;;5.00;3.20;;;14.80;99.90;;;;;;4995039;28;20596;-78
2023/07/11 07:54:22;;;;;;;3.85;2.35;;;14.70;99.90;;;;;;4995318;28;20199;-78
2023/07/11 07:56:55;;;;;;;3.17;2.40;;;14.70;99.90;;;;;;4995168;28;20187;-77
2023/07/11 07:59:26;;;;;;;5.53;3.10;;;14.70;99.90;;;;;;4995173;28;20196;-77
2023/07/11 08:01:57;;;;;;;4.72;3.20;;;14.70;99.90;;;;;;4995034;28;20231;-77
2023/07/11 08:04:30;;;;;;;4.70;3.30;;;14.60;99.90;;;;;;4995059;28;20593;-78
2023/07/11 08:07:01;;;;;;;4.13;2.88;;;14.60;99.90;;;;;;4995022;28;20587;-78
2023/07/11 08:09:32;;;;;;;4.95;2.45;;;14.50;99.90;;;;;;4995057;28;20206;-78
2023/07/11 08:12:11;;;;;;;4.95;2.25;;;14.50;99.90;;;;;;4994933;28;20199;-76
2023/07/11 08:14:44;;;;;;;3.75;2.20;;;14.40;99.90;;;;;;4994954;28;20187;-77
2023/07/11 08:17:15;;;;;;;2.85;1.85;;;14.40;99.90;;;;;;4994850;28;20194;-78
2023/07/11 08:19:46;;;;;;;3.22;2.00;;;14.30;99.90;;;;;;4994683;28;20192;-78
2023/07/11 08:22:17;;;;;;;5.88;2.00;;;14.30;99.90;;;;;;4994720;28;20195;-78
2023/07/11 08:24:48;;;;;;;1.88;1.50;;;14.30;99.90;;;;;;4994742;28;20196;-78
2023/07/11 08:27:22;;;;;;;3.38;1.48;;;14.20;99.90;;;;;;4994956;28;20191;-78
2023/07/11 08:29:53;;;;;;;3.65;1.88;;;14.10;99.90;;;;;;4994989;28;20253;-78
2023/07/11 08:32:24;;;;;;;3.25;1.45;;;14.00;99.90;;;;;;4994553;28;20218;-78
2023/07/11 08:34:55;;;;;;;3.22;1.90;;;13.90;99.90;;;;;;4988492;28;20218;-77
2023/07/11 08:37:26;;;;;;;3.40;1.88;;;13.90;99.90;;;;;;4992390;28;20200;-76
2023/07/11 08:39:57;;;;;;;3.05;1.88;;;13.90;99.90;;;;;;4990789;28;20195;-76
2023/07/11 08:42:36;;;;;;;4.82;2.20;;;13.90;99.90;;;;;;4992750;28;20203;-75
2023/07/11 08:45:19;;;;;;;5.22;2.30;;;13.90;99.90;;;;;;4989729;28;20199;-77
2023/07/11 08:47:57;;;;;;;4.35;2.05;;;13.90;99.90;;;;;;4982348;28;20547;-77
2023/07/11 08:50:34;;;;;;;4.40;2.10;;;13.90;99.90;;;;;;4988728;28;20203;-76
2023/07/11 08:53:12;;;;;;;4.85;1.83;;;13.80;99.90;;;;;;4991939;28;20698;-76
2023/07/11 08:55:50;;;;;;;4.07;2.20;;;13.80;99.90;;;;;;4989291;28;20202;-77
2023/07/11 08:58:27;;;;;;;2.60;1.88;;;13.70;99.90;;;;;;4988193;28;20218;-76
2023/07/11 09:01:03;;;;;;;4.18;2.00;;;13.70;99.90;;;;;;4993556;28;20281;-76
2023/07/11 09:03:41;;;;;;;2.72;1.95;;;13.70;99.90;;;;;;4993068;28;20223;-76
2023/07/11 09:06:17;;;;;;;5.38;2.22;;;13.70;99.90;;;;;;4984927;28;20563;-76
2023/07/11 09:08:54;;;;;;;3.47;2.08;;;13.70;99.90;;;;;;4989995;28;20222;-76
2023/07/11 09:11:30;;;;;;;3.50;2.40;;;13.60;99.90;;;;;;4989873;28;20649;-76
2023/07/11 09:14:17;;;;;;;5.68;2.35;;;13.60;99.90;;;;;;4980956;28;20199;-77
2023/07/11 09:16:53;;;;;;;4.28;2.47;;;13.50;99.90;;;;;;4990858;28;20211;-77
2023/07/11 09:19:43;;;;;;;7.80;2.72;;;13.40;99.90;;;;;;4992553;28;20199;-76
2023/07/11 09:22:25;;;;;;;8.63;3.47;;;13.40;99.90;;;;;;4992578;28;20582;-77
2023/07/11 09:25:00;;;;;;;4.88;3.20;;;13.50;99.90;;;;;;4981642;28;20225;-76
2023/07/11 09:27:35;;;;;;;7.82;3.70;;;13.60;99.90;;;;;;4987986;28;20199;-76
2023/07/11 09:30:18;;;;;;;5.78;3.85;;;13.70;99.90;;;;;;4992855;28;20203;-76
2023/07/11 09:32:50;;;;;;;6.97;3.55;;;13.80;99.90;;;;;;4993693;28;20203;-76
2023/07/11 09:35:29;;;;;;;6.63;3.40;;;14.00;99.90;;;;;;4992673;28;20282;-76
2023/07/11 09:38:08;;;;;;;5.25;3.50;;;14.00;99.90;;;;;;4993528;28;20246;-75
2023/07/11 09:40:41;;;;;;;6.68;3.35;;;14.00;99.90;;;;;;4992425;28;20199;-75
2023/07/11 09:43:13;;;;;;;8.18;3.55;;;14.00;99.90;;;;;;4992691;28;20234;-75
2023/07/11 09:45:47;;;;;;;5.93;3.35;;;13.90;99.90;;;;;;4990701;28;20199;-74
2023/07/11 09:48:21;;;;;;;8.82;3.58;;;13.90;99.90;;;;;;4992396;28;20569;-74
2023/07/11 09:51:13;;;;;;;5.93;3.53;;;13.80;99.90;;;;;;4994372;28;20278;-74
2023/07/11 09:53:48;;;;;;;6.15;3.65;;;13.70;99.90;;;;;;4997181;28;20204;-76
2023/07/11 09:56:20;;;;;;;7.20;3.80;;;13.60;99.90;;;;;;4994219;28;20210;-76
2023/07/11 09:58:53;;;;;;;6.43;3.70;;;13.50;99.90;;;;;;4982634;28;20195;-76
2023/07/11 10:01:29;;;;;;;5.93;3.40;;;13.50;99.90;;;;;;4995822;28;20241;-76
2023/07/11 10:04:02;;;;;;;6.18;3.70;;;13.40;99.90;;;;;;4994074;28;20771;-76
2023/07/11 10:06:37;;;;;;;8.80;3.90;;;13.30;99.90;;;;;;4996803;28;20188;-74
2023/07/11 10:09:19;;;;;;;7.18;3.78;;;13.30;99.90;;;;;;4996279;28;20203;-74
2023/07/11 10:11:58;;;;;;;7.38;3.97;;;13.20;99.90;;;;;;4996874;28;20199;-75
2023/07/11 10:14:33;;;;;;;7.03;3.60;;;13.20;99.90;;;;;;4994298;28;20254;-76
2023/07/11 10:17:16;;;;;;;8.43;3.90;;;13.20;99.90;;;;;;4995721;28;20211;-77
2023/07/11 10:19:50;;;;;;;8.88;3.33;;;13.10;99.90;;;;;;4994803;28;20204;-76
2023/07/11 10:22:23;;;;;;;6.25;3.47;;;12.90;99.90;;;;;;4990477;28;20286;-76
2023/07/11 10:25:01;;;;;;;6.72;3.58;;;12.90;99.90;;;;;;4990717;28;20683;-76
2023/07/11 10:27:37;;;;;;;5.82;3.30;;;12.90;99.90;;;;;;4994255;28;20202;-76
2023/07/11 10:30:17;;;;;;;4.90;3.20;;;12.90;99.90;;;;;;4994074;28;20205;-76
2023/07/11 10:32:56;;;;;;;6.60;3.38;;;12.90;99.90;;;;;;4990754;28;20232;-76
2023/07/11 10:35:28;;;;;;;6.60;2.97;;;12.80;99.90;;;;;;4988993;28;20191;-76
2023/07/11 10:38:03;;;;;;;4.60;2.90;;;12.70;99.90;;;;;;4994925;28;20199;-76
2023/07/11 10:40:37;;;;;;;5.35;3.15;;;12.70;99.90;;;;;;4992482;28;20195;-77
2023/07/11 10:43:16;;;;;;;7.65;3.35;;;12.70;99.90;;;;;;4995140;28;20258;-77
2023/07/11 10:45:49;;;;;;;5.38;3.08;;;12.70;99.90;;;;;;4995870;28;20201;-76
2023/07/11 10:48:33;;;;;;;7.22;3.75;;;12.70;99.90;;;;;;4996284;28;20204;-76
2023/07/11 10:51:09;;;;;;;8.10;4.00;;;12.60;99.90;;;;;;4986455;28;20227;-76
2023/07/11 10:53:44;;;;;;;9.80;3.90;;;12.60;99.90;;;;;;4994059;28;20201;-76
2023/07/11 10:56:23;;;;;;;8.05;4.20;;;12.50;99.90;;;;;;4988589;28;20569;-76
2023/07/11 10:58:55;;;;;;;7.70;3.95;;;12.40;99.90;;;;;;4994349;28;20207;-76
2023/07/11 11:01:35;;;;;;;10.23;4.05;;;12.40;99.90;;;;;;4994561;28;20247;-76
2023/07/11 11:04:20;;;;;;;6.80;3.88;;;12.40;99.90;;;;;;4995639;28;20223;-76
2023/07/11 11:06:59;;;;;;;8.77;4.03;;;12.40;99.90;;;;;;4996314;28;20200;-76
2023/07/11 11:09:39;;;;;;;8.10;3.92;;;12.40;99.90;;;;;;4994896;28;20199;-76
2023/07/11 11:12:21;;;;;;;7.82;3.80;;;12.40;99.90;;;;;;4996252;28;20200;-76
2023/07/11 11:14:59;;;;;;;6.78;4.10;;;12.40;99.90;;;;;;4994284;28;20200;-76
2023/07/11 11:17:41;;;;;;;5.85;3.70;;;12.30;99.90;;;;;;4992969;28;20203;-75
2023/07/11 11:20:20;;;;;;;6.80;4.32;;;12.30;99.90;;;;;;4993914;28;20203;-75
2023/07/11 11:23:05;;;;;;;8.10;4.50;;;12.20;99.90;;;;;;4993730;28;20203;-76
2023/07/11 11:25:42;;;;;;;8.95;4.70;;;12.20;99.90;;;;;;4993714;28;20216;-76
2023/07/11 11:28:23;;;;;;;7.57;4.00;;;12.20;99.90;;;;;;4995760;28;20210;-76
2023/07/11 11:31:00;;;;;;;9.23;4.40;;;12.20;99.90;;;;;;4994596;28;20258;-76
2023/07/11 11:33:46;;;;;;;9.82;4.72;;;12.10;99.90;;;;;;4993938;28;20566;-76
2023/07/11 11:36:27;;;;;;;10.95;5.03;;;12.10;99.90;;;;;;4995034;28;20210;-76
2023/07/11 11:39:09;;;;;;;8.75;4.57;;;12.10;99.90;;;;;;4993711;28;20199;-75
2023/07/11 11:41:44;;;;;;;7.68;4.45;;;12.10;99.90;;;;;;4987256;28;20663;-77
2023/07/11 11:44:20;;;;;;;8.43;4.47;;;12.00;99.90;;;;;;4991484;28;20682;-76
2023/07/11 11:46:52;;;;;;;9.13;4.63;;;12.00;99.90;;;;;;4994477;28;20205;-76
2023/07/11 11:49:25;;;;;;;10.20;4.93;;;11.90;99.90;;;;;;4991596;28;20685;-76
2023/07/11 11:51:59;;;;;;;7.65;4.25;;;11.90;99.90;;;;;;4992530;28;20286;-76
2023/07/11 11:54:37;;;;;;;9.30;4.60;;;11.90;99.90;;;;;;4984623;28;20191;-76
2023/07/11 11:57:09;;;;;;;8.80;4.00;;;11.80;99.90;;;;;;4992067;28;20251;-76
2023/07/11 11:59:42;;;;;;;8.50;4.45;;;11.80;99.90;;;;;;4987391;28;20200;-76
2023/07/11 12:02:17;;;;;;;7.72;4.57;;;11.80;99.90;;;;;;4994185;28;20210;-76
2023/07/11 12:05:18;;;;;;;6.25;4.00;;;11.70;99.90;;;;;;4994893;28;20261;-76
2023/07/11 12:08:27;;;;;;;8.75;4.28;;;11.70;99.90;;;;;;4994749;28;20210;-77
2023/07/11 12:11:21;;;;;;;6.88;4.10;;;11.60;99.90;;;;;;4994106;28;20562;-77
2023/07/11 12:14:30;;;;;;;7.88;4.22;;;11.60;99.90;;;;;;4984009;28;20224;-77
2023/07/11 12:17:02;;;;;;;7.97;4.85;;;11.50;99.90;;;;;;4993853;28;20230;-77
2023/07/11 12:19:36;;;;;;;9.13;4.72;;;11.50;99.90;;;;;;4994459;28;20198;-76
2023/07/11 12:22:09;;;;;;;13.55;5.40;;;11.40;99.90;;;;;;4992634;28;20667;-76
2023/07/11 12:25:02;;;;;;;8.48;4.40;;;11.40;99.90;;;;;;4993597;28;20219;-76
2023/07/11 12:28:01;;;;;;;11.38;5.57;;;11.40;99.90;;;;;;4994569;28;20207;-76
2023/07/11 12:31:08;;;;;;;12.00;5.60;;;11.40;99.90;;;;;;4992817;28;20196;-77
2023/07/11 12:33:40;;;;;;;10.52;5.65;;;11.40;99.90;;;;;;4994715;28;20203;-76
2023/07/11 12:36:37;;;;;;;8.65;5.15;;;11.30;99.90;;;;;;4993531;28;20203;-76
2023/07/11 12:39:27;;;;;;;9.70;5.75;;;11.30;99.90;;;;;;4994528;28;20222;-76
2023/07/11 12:42:08;;;;;;;12.00;5.63;;;11.20;99.90;;;;;;4993330;28;20234;-76
2023/07/11 12:44:41;;;;;;;10.15;5.47;;;11.20;99.90;;;;;;4994295;28;20226;-76
2023/07/11 12:47:17;;;;;;;11.80;6.30;;;11.20;99.90;;;;;;4993488;28;20204;-77
2023/07/11 12:49:51;;;;;;;9.68;5.63;;;11.10;99.90;;;;;;4994436;28;20195;-76
2023/07/11 12:52:24;;;;;;;9.75;5.40;;;11.00;99.90;;;;;;4992370;28;20223;-76
2023/07/11 12:54:55;;;;;;;8.50;5.18;;;11.00;99.90;;;;;;4993920;28;20227;-77
2023/07/11 12:57:29;;;;;;;9.65;4.97;;;11.00;99.90;;;;;;4993387;28;20209;-77
2023/07/11 13:00:01;;;;;;;9.23;5.30;;;11.00;99.90;;;;;;4993891;28;20690;-76
2023/07/11 13:02:33;;;;;;;8.05;4.70;;;11.00;99.90;;;;;;4993483;28;20198;-76
2023/07/11 13:05:04;;;;;;;9.40;4.75;;;11.00;99.90;;;;;;4994044;28;20219;-76
2023/07/11 13:07:35;;;;;;;9.70;5.20;;;10.90;99.90;;;;;;4994149;28;20196;-76
2023/07/11 13:10:21;;;;;;;10.38;4.88;;;10.90;99.90;;;;;;4993921;28;20202;-76
2023/07/11 13:12:55;;;;;;;10.85;4.93;;;10.80;99.90;;;;;;4991447;28;20200;-76
2023/07/11 13:15:27;;;;;;;9.13;4.85;;;10.80;99.90;;;;;;4993303;28;20231;-76
2023/07/11 13:18:00;;;;;;;9.18;4.70;;;10.80;99.90;;;;;;4994010;28;20195;-76
2023/07/11 13:20:34;;;;;;;7.82;4.70;;;10.80;99.90;;;;;;4991025;28;20191;-76
2023/07/11 13:23:06;;;;;;;10.48;4.68;;;10.80;99.90;;;;;;4993019;28;20199;-76